Time;durP1;ratioP1;P1;durP2;ratioP2;P2;SDS_P1;SDS_P2;PMS_P1;PMS_P2;Temp;Humidity;BMP_temperature;BMP_pressure;BME280_temperature;BME280_humidity;BME280_pressure;Samples;Min_cycle;Max_cycle;Signal;HPM_P1;HPM_P2
2022/04/05 00:02:24;;;;;;;;;21.25;18.25;;;;;;;;4966930;28;28372;-87
2022/04/05 00:04:50;;;;;;;;;19.00;18.00;;;;;;;;4951542;28;28764;-86
2022/04/05 00:07:15;;;;;;;;;22.25;18.75;;;;;;;;4951127;28;29329;-87
2022/04/05 00:09:41;;;;;;;;;22.50;18.50;;;;;;;;4951171;28;28927;-87
2022/04/05 00:12:06;;;;;;;;;18.50;18.25;;;;;;;;4951118;28;28898;-87
2022/04/05 00:14:31;;;;;;;;;17.50;17.50;;;;;;;;4953667;28;28394;-87
2022/04/05 00:16:57;;;;;;;;;20.50;20.50;;;;;;;;4951172;28;29494;-86
2022/04/05 00:19:23;;;;;;;;;22.20;20.20;;;;;;;;4950935;28;28505;-86
2022/04/05 00:21:48;;;;;;;;;22.50;19.00;;;;;;;;4951194;28;27905;-87
2022/04/05 00:24:13;;;;;;;;;22.00;20.50;;;;;;;;4950984;28;28484;-86
2022/04/05 00:26:39;;;;;;;;;19.00;19.00;;;;;;;;4950787;28;28425;-87
2022/04/05 00:29:04;;;;;;;;;22.50;20.50;;;;;;;;4950922;28;28405;-87
2022/04/05 00:31:29;;;;;;;;;23.00;20.67;;;;;;;;4950780;28;28370;-87
2022/04/05 00:33:54;;;;;;;;;26.50;21.50;;;;;;;;4951008;28;28443;-87
2022/04/05 00:36:20;;;;;;;;;22.33;22.33;;;;;;;;4950482;28;29345;-86
2022/04/05 00:38:45;;;;;;;;;21.00;20.00;;;;;;;;4951075;28;28643;-87
2022/04/05 00:41:10;;;;;;;;;22.75;21.25;;;;;;;;4950513;28;28312;-87
2022/04/05 00:43:36;;;;;;;;;18.50;18.25;;;;;;;;4950479;28;28470;-87
2022/04/05 00:46:01;;;;;;;;;23.33;22.67;;;;;;;;4951748;28;29815;-87
2022/04/05 00:48:33;;;;;;;;;21.00;19.00;;;;;;;;4933996;28;28911;-86
2022/04/05 00:50:58;;;;;;;;;18.75;16.75;;;;;;;;4951555;28;28496;-86
2022/04/05 00:53:26;;;;;;;;;25.33;22.00;;;;;;;;4952006;28;28478;-86
2022/04/05 00:55:53;;;;;;;;;20.50;18.75;;;;;;;;4951098;28;28271;-86
2022/04/05 00:58:20;;;;;;;;;29.00;23.40;;;;;;;;4951582;28;28394;-87
2022/04/05 01:00:47;;;;;;;;;18.75;17.50;;;;;;;;4950332;28;28406;-86
2022/04/05 01:03:12;;;;;;;;;20.80;20.00;;;;;;;;4950942;28;28549;-87
2022/04/05 01:05:39;;;;;;;;;19.00;18.67;;;;;;;;4970646;28;29447;-87
2022/04/05 01:08:05;;;;;;;;;22.20;21.20;;;;;;;;4969850;28;28484;-87
2022/04/05 01:10:32;;;;;;;;;24.00;22.25;;;;;;;;4970450;28;28422;-86
2022/04/05 01:12:57;;;;;;;;;20.75;19.75;;;;;;;;4970601;28;28355;-86
2022/04/05 01:15:23;;;;;;;;;19.75;18.00;;;;;;;;4969286;28;29113;-86
2022/04/05 01:17:48;;;;;;;;;24.25;22.75;;;;;;;;4970374;28;28349;-87
2022/04/05 01:20:13;;;;;;;;;21.00;21.00;;;;;;;;4970562;28;28400;-87
2022/04/05 01:22:46;;;;;;;;;21.00;20.00;;;;;;;;4970267;28;28418;-87
2022/04/05 01:25:13;;;;;;;;;24.00;22.00;;;;;;;;4970284;28;29146;-86
2022/04/05 01:27:38;;;;;;;;;20.00;18.00;;;;;;;;4969774;28;28475;-87
2022/04/05 01:30:03;;;;;;;;;20.25;18.25;;;;;;;;4969793;28;28328;-86
2022/04/05 01:32:29;;;;;;;;;27.33;23.67;;;;;;;;4970063;28;28454;-87
2022/04/05 01:34:55;;;;;;;;;22.00;21.00;;;;;;;;4970233;28;28666;-86
2022/04/05 01:37:20;;;;;;;;;21.80;20.40;;;;;;;;4970302;28;28408;-86
2022/04/05 01:39:45;;;;;;;;;20.67;20.00;;;;;;;;4970331;28;28571;-86
2022/04/05 01:42:12;;;;;;;;;22.33;20.67;;;;;;;;4970312;28;28429;-86
2022/04/05 01:44:38;;;;;;;;;24.50;20.50;;;;;;;;4952588;28;28717;-86
2022/04/05 01:47:09;;;;;;;;;23.00;20.75;;;;;;;;4969928;28;28488;-86
2022/04/05 01:49:34;;;;;;;;;25.00;23.50;;;;;;;;4970234;28;28330;-86
2022/04/05 01:52:00;;;;;;;;;20.80;20.80;;;;;;;;4969706;28;28428;-87
2022/04/05 01:54:25;;;;;;;;;21.00;20.00;;;;;;;;4969853;28;28520;-86
2022/04/05 01:56:51;;;;;;;;;20.00;18.00;;;;;;;;4968889;28;28557;-89
2022/04/05 01:59:17;;;;;;;;;22.80;20.80;;;;;;;;4969792;28;28378;-87
2022/04/05 02:01:43;;;;;;;;;24.00;22.33;;;;;;;;4970181;28;28452;-87
2022/04/05 02:04:09;;;;;;;;;22.00;21.75;;;;;;;;4969215;28;28414;-88
2022/04/05 02:06:34;;;;;;;;;20.67;19.33;;;;;;;;4969892;28;28394;-87
2022/04/05 02:09:00;;;;;;;;;21.75;21.75;;;;;;;;4969903;28;28302;-87
2022/04/05 02:11:25;;;;;;;;;22.67;21.00;;;;;;;;4969323;28;28528;-87
2022/04/05 02:13:50;;;;;;;;;23.00;23.00;;;;;;;;4969841;28;29532;-87
2022/04/05 02:16:15;;;;;;;;;21.33;21.33;;;;;;;;4969766;28;28285;-88
2022/04/05 02:18:41;;;;;;;;;21.00;20.00;;;;;;;;4969616;28;28414;-87
2022/04/05 02:21:06;;;;;;;;;23.00;22.25;;;;;;;;4969958;28;28338;-87
2022/04/05 02:23:32;;;;;;;;;20.50;20.00;;;;;;;;4968999;28;28682;-85
2022/04/05 02:25:57;;;;;;;;;19.75;19.25;;;;;;;;4969556;28;28454;-85
2022/04/05 02:28:22;;;;;;;;;22.67;20.00;;;;;;;;4969437;28;28299;-87
2022/04/05 02:30:48;;;;;;;;;23.00;22.00;;;;;;;;4969398;28;28412;-85
2022/04/05 02:33:13;;;;;;;;;22.50;19.00;;;;;;;;4969008;28;28467;-86
2022/04/05 02:35:38;;;;;;;;;24.00;21.50;;;;;;;;4969320;28;28353;-86
2022/04/05 02:38:03;;;;;;;;;17.67;17.67;;;;;;;;4969778;28;28389;-86
2022/04/05 02:40:29;;;;;;;;;22.00;21.25;;;;;;;;4970777;28;28767;-85
2022/04/05 02:42:54;;;;;;;;;22.00;20.75;;;;;;;;4969169;28;29222;-87
2022/04/05 02:45:19;;;;;;;;;19.50;19.50;;;;;;;;4969570;28;28357;-87
2022/04/05 02:47:45;;;;;;;;;18.25;17.50;;;;;;;;4969590;28;28508;-87
2022/04/05 02:50:10;;;;;;;;;20.00;20.00;;;;;;;;4969538;28;28685;-86
2022/04/05 02:52:36;;;;;;;;;24.25;21.50;;;;;;;;4968961;28;28502;-86
2022/04/05 02:55:01;;;;;;;;;21.75;21.75;;;;;;;;4969603;28;28393;-86
2022/04/05 02:57:26;;;;;;;;;21.33;19.00;;;;;;;;4968958;28;28396;-86
2022/04/05 02:59:51;;;;;;;;;23.00;21.25;;;;;;;;4966031;28;28487;-86
2022/04/05 03:02:17;;;;;;;;;23.00;23.00;;;;;;;;4962145;28;28878;-86
2022/04/05 03:04:42;;;;;;;;;20.75;19.75;;;;;;;;4965095;28;28410;-86
2022/04/05 03:07:07;;;;;;;;;23.00;21.67;;;;;;;;4970348;28;28417;-86
2022/04/05 03:09:32;;;;;;;;;20.50;19.50;;;;;;;;4972386;28;28424;-85
2022/04/05 03:11:58;;;;;;;;;21.00;18.00;;;;;;;;4972097;28;28411;-85
2022/04/05 03:14:23;;;;;;;;;19.00;18.00;;;;;;;;4972468;28;28313;-86
2022/04/05 03:16:48;;;;;;;;;28.00;23.00;;;;;;;;4972108;28;28302;-86
2022/04/05 03:19:13;;;;;;;;;19.75;18.25;;;;;;;;4972769;28;28393;-87
2022/04/05 03:21:38;;;;;;;;;24.67;23.00;;;;;;;;4972156;28;29245;-86
2022/04/05 03:24:04;;;;;;;;;19.00;17.50;;;;;;;;4972464;28;28339;-86
2022/04/05 03:26:29;;;;;;;;;23.00;20.00;;;;;;;;4972072;28;28253;-86
2022/04/05 03:28:55;;;;;;;;;20.00;18.00;;;;;;;;4972101;28;28409;-86
2022/04/05 03:31:20;;;;;;;;;23.00;23.00;;;;;;;;4972154;28;28539;-86
2022/04/05 03:33:46;;;;;;;;;21.75;21.75;;;;;;;;4972068;28;28536;-85
2022/04/05 03:36:11;;;;;;;;;19.25;19.25;;;;;;;;4971605;28;28528;-87
2022/04/05 03:38:36;;;;;;;;;23.00;20.00;;;;;;;;4972330;28;28251;-86
2022/04/05 03:41:02;;;;;;;;;28.67;25.67;;;;;;;;4972018;28;28575;-87
2022/04/05 03:43:27;;;;;;;;;21.00;20.00;;;;;;;;4971747;28;28870;-88
2022/04/05 03:45:53;;;;;;;;;21.75;21.75;;;;;;;;4971798;28;28321;-87
2022/04/05 03:48:18;;;;;;;;;24.75;19.75;;;;;;;;4972147;28;28446;-87
2022/04/05 03:50:43;;;;;;;;;19.00;19.00;;;;;;;;4971492;28;28322;-87
2022/04/05 03:53:08;;;;;;;;;18.25;18.25;;;;;;;;4971316;28;28384;-87
2022/04/05 03:55:34;;;;;;;;;19.67;19.67;;;;;;;;4972175;28;28342;-88
2022/04/05 03:57:59;;;;;;;;;24.00;23.50;;;;;;;;4971777;28;28445;-89
2022/04/05 04:00:25;;;;;;;;;22.00;20.00;;;;;;;;4954592;28;29583;-88
2022/04/05 04:02:50;;;;;;;;;21.00;21.00;;;;;;;;4971660;28;28488;-87
2022/04/05 04:05:19;;;;;;;;;18.50;17.00;;;;;;;;4971190;28;28361;-87
2022/04/05 04:07:44;;;;;;;;;26.25;24.00;;;;;;;;4954496;28;28539;-87
2022/04/05 04:10:09;;;;;;;;;22.00;20.50;;;;;;;;4971460;28;29549;-88
2022/04/05 04:12:35;;;;;;;;;22.33;21.33;;;;;;;;4971492;28;28412;-88
2022/04/05 04:15:00;;;;;;;;;24.25;22.00;;;;;;;;4971418;28;28544;-87
2022/04/05 04:17:25;;;;;;;;;26.00;21.25;;;;;;;;4954269;28;28480;-89
2022/04/05 04:19:51;;;;;;;;;26.67;26.33;;;;;;;;4970616;28;29497;-88
2022/04/05 04:22:16;;;;;;;;;26.33;24.67;;;;;;;;4971128;28;28524;-89
2022/04/05 04:24:41;;;;;;;;;25.00;25.00;;;;;;;;4971727;28;28373;-89
2022/04/05 04:27:06;;;;;;;;;23.25;22.00;;;;;;;;4971553;28;28629;-88
2022/04/05 04:29:32;;;;;;;;;24.00;24.00;;;;;;;;4971117;28;28487;-88
2022/04/05 04:31:57;;;;;;;;;24.25;22.25;;;;;;;;4971120;28;28623;-88
2022/04/05 04:34:22;;;;;;;;;25.00;25.00;;;;;;;;4953624;28;28481;-87
2022/04/05 04:36:48;;;;;;;;;24.00;23.00;;;;;;;;4954062;28;28454;-88
2022/04/05 04:39:16;;;;;;;;;23.00;21.00;;;;;;;;4971322;28;28420;-88
2022/04/05 04:41:42;;;;;;;;;21.25;19.75;;;;;;;;4970601;28;28382;-89
2022/04/05 04:44:07;;;;;;;;;27.25;24.00;;;;;;;;4971364;28;28365;-89
2022/04/05 04:46:32;;;;;;;;;27.75;24.75;;;;;;;;4971242;28;28436;-88
2022/04/05 04:48:57;;;;;;;;;23.67;22.33;;;;;;;;4971277;28;28838;-89
2022/04/05 04:51:23;;;;;;;;;24.25;23.75;;;;;;;;4970980;28;28370;-88
2022/04/05 04:53:48;;;;;;;;;27.25;26.25;;;;;;;;4971136;28;28406;-88
2022/04/05 04:56:13;;;;;;;;;25.50;21.00;;;;;;;;4971001;28;28289;-88
2022/04/05 04:58:39;;;;;;;;;22.50;22.00;;;;;;;;4969957;28;28742;-88
2022/04/05 05:01:04;;;;;;;;;22.75;22.75;;;;;;;;4971188;28;28719;-87
2022/04/05 05:03:29;;;;;;;;;21.67;21.67;;;;;;;;4971071;28;28442;-89
2022/04/05 05:05:55;;;;;;;;;24.33;24.33;;;;;;;;4971179;28;28300;-87
2022/04/05 05:08:20;;;;;;;;;25.25;23.50;;;;;;;;4971114;28;28744;-88
2022/04/05 05:10:45;;;;;;;;;27.00;25.50;;;;;;;;4971062;28;28290;-90
2022/04/05 05:13:11;;;;;;;;;22.67;22.67;;;;;;;;4954050;28;28334;-82
2022/04/05 05:15:36;;;;;;;;;26.00;24.50;;;;;;;;4969998;28;28346;-82
2022/04/05 05:18:01;;;;;;;;;24.33;22.67;;;;;;;;4968743;28;28360;-82
2022/04/05 05:20:27;;;;;;;;;23.25;23.25;;;;;;;;4957562;28;28503;-82
2022/04/05 05:22:52;;;;;;;;;24.67;24.67;;;;;;;;4970516;28;28350;-82
2022/04/05 05:25:17;;;;;;;;;23.33;20.33;;;;;;;;4970118;28;28517;-81
2022/04/05 05:27:42;;;;;;;;;21.00;20.75;;;;;;;;4969704;28;29808;-81
2022/04/05 05:30:09;;;;;;;;;23.33;23.33;;;;;;;;4969925;28;27813;-80
2022/04/05 05:32:41;;;;;;;;;21.00;21.00;;;;;;;;4969722;28;28374;-82
2022/04/05 05:35:07;;;;;;;;;25.60;25.40;;;;;;;;4953569;28;28445;-87
2022/04/05 05:37:32;;;;;;;;;24.75;23.00;;;;;;;;4971097;28;28612;-89
2022/04/05 05:39:57;;;;;;;;;24.33;23.33;;;;;;;;4955473;28;28559;-90
2022/04/05 05:42:22;;;;;;;;;23.67;19.67;;;;;;;;4971607;28;28283;-85
2022/04/05 05:44:47;;;;;;;;;21.75;21.75;;;;;;;;4973077;28;28323;-91
2022/04/05 05:47:13;;;;;;;;;23.50;22.25;;;;;;;;4957169;28;28918;-90
2022/04/05 05:49:38;;;;;;;;;23.50;21.75;;;;;;;;4955478;28;28821;-89
2022/04/05 05:52:04;;;;;;;;;27.00;25.40;;;;;;;;4957725;28;28389;-89
2022/04/05 05:54:29;;;;;;;;;22.00;20.25;;;;;;;;4974184;28;28882;-93
2022/04/05 05:56:54;;;;;;;;;21.67;21.67;;;;;;;;4957068;28;30019;-92
2022/04/05 05:59:19;;;;;;;;;25.67;24.00;;;;;;;;4956358;28;28349;-87
2022/04/05 06:01:45;;;;;;;;;21.33;20.00;;;;;;;;4954021;28;28415;-90
2022/04/05 06:04:10;;;;;;;;;23.00;23.00;;;;;;;;4971847;28;28488;-90
2022/04/05 06:06:35;;;;;;;;;23.00;21.00;;;;;;;;4953796;28;28852;-87
2022/04/05 06:09:01;;;;;;;;;22.67;22.67;;;;;;;;4970982;28;28336;-87
2022/04/05 06:11:26;;;;;;;;;26.00;23.00;;;;;;;;4970453;28;28468;-88
2022/04/05 06:13:51;;;;;;;;;25.67;22.67;;;;;;;;4970240;28;28459;-88
2022/04/05 06:16:18;;;;;;;;;17.75;17.75;;;;;;;;4969802;28;29594;-90
2022/04/05 06:18:44;;;;;;;;;19.00;19.00;;;;;;;;4970070;28;28466;-88
2022/04/05 06:21:09;;;;;;;;;25.00;23.75;;;;;;;;4952842;28;28743;-88
2022/04/05 06:23:34;;;;;;;;;23.00;20.33;;;;;;;;4952932;28;28406;-89
2022/04/05 06:25:59;;;;;;;;;24.00;22.00;;;;;;;;4969519;28;29182;-89
2022/04/05 06:28:25;;;;;;;;;24.33;22.00;;;;;;;;4951890;28;29394;-88
2022/04/05 06:30:50;;;;;;;;;23.33;23.33;;;;;;;;4970075;28;28537;-88
2022/04/05 06:33:20;;;;;;;;;24.00;22.33;;;;;;;;4952755;28;28268;-88
2022/04/05 06:35:46;;;;;;;;;22.00;22.00;;;;;;;;4970002;28;28419;-88
2022/04/05 06:38:12;;;;;;;;;19.20;17.80;;;;;;;;4952844;28;28531;-89
2022/04/05 06:40:37;;;;;;;;;20.40;19.00;;;;;;;;4952861;28;28470;-89
2022/04/05 06:43:03;;;;;;;;;21.60;21.00;;;;;;;;4968699;28;28408;-88
2022/04/05 06:45:28;;;;;;;;;21.00;20.00;;;;;;;;4952254;28;29722;-89
2022/04/05 06:47:54;;;;;;;;;19.00;19.00;;;;;;;;4970321;28;28342;-89
2022/04/05 06:50:26;;;;;;;;;20.80;19.60;;;;;;;;4970358;28;28347;-91
2022/04/05 06:52:52;;;;;;;;;21.80;20.20;;;;;;;;4970538;28;28346;-88
2022/04/05 06:55:18;;;;;;;;;20.75;19.50;;;;;;;;4970213;28;28655;-90
2022/04/05 06:57:43;;;;;;;;;18.67;18.67;;;;;;;;4970450;28;28494;-90
2022/04/05 07:00:09;;;;;;;;;18.50;16.75;;;;;;;;4953837;28;28336;-89
2022/04/05 07:02:35;;;;;;;;;21.60;20.00;;;;;;;;4970698;28;28366;-88
2022/04/05 07:05:00;;;;;;;;;25.33;23.67;;;;;;;;4954707;28;30107;-91
2022/04/05 07:07:25;;;;;;;;;20.00;18.00;;;;;;;;4964338;28;29825;-90
2022/04/05 07:09:50;;;;;;;;;23.25;19.75;;;;;;;;4955852;28;28376;-91
2022/04/05 07:12:16;;;;;;;;;21.75;21.75;;;;;;;;4954892;28;28463;-89
2022/04/05 07:14:41;;;;;;;;;20.00;18.33;;;;;;;;4969927;28;28445;-89
2022/04/05 07:17:06;;;;;;;;;23.33;19.00;;;;;;;;4971436;28;28345;-91
2022/04/05 07:19:33;;;;;;;;;19.00;17.00;;;;;;;;4956070;28;28426;-91
2022/04/05 07:21:58;;;;;;;;;16.80;16.80;;;;;;;;4973409;28;28457;-91
2022/04/05 07:24:24;;;;;;;;;19.75;18.00;;;;;;;;4955841;28;30586;-91
2022/04/05 07:26:49;;;;;;;;;18.00;18.00;;;;;;;;4973855;28;28377;-91
2022/04/05 07:29:14;;;;;;;;;17.33;16.33;;;;;;;;4972161;28;28421;-90
2022/04/05 07:31:39;;;;;;;;;19.75;18.75;;;;;;;;4963987;28;28606;-90
2022/04/05 07:34:05;;;;;;;;;16.25;14.50;;;;;;;;4989433;28;28328;-90
2022/04/05 07:36:30;;;;;;;;;19.25;17.25;;;;;;;;4968308;28;28603;-92
2022/04/05 07:38:56;;;;;;;;;15.50;15.50;;;;;;;;4957667;28;28097;-92
2022/04/05 07:41:21;;;;;;;;;17.25;17.00;;;;;;;;4976003;28;27893;-90
2022/04/05 07:43:46;;;;;;;;;20.00;18.00;;;;;;;;4972770;28;29543;-91
2022/04/05 07:46:12;;;;;;;;;16.75;16.75;;;;;;;;4971604;28;28168;-90
2022/04/05 07:48:37;;;;;;;;;15.80;15.40;;;;;;;;4954406;28;28334;-89
2022/04/05 07:51:03;;;;;;;;;22.00;19.00;;;;;;;;4954831;28;28485;-89
2022/04/05 07:53:29;;;;;;;;;16.00;15.00;;;;;;;;4971016;28;28636;-90
2022/04/05 07:55:56;;;;;;;;;17.00;17.00;;;;;;;;4974238;28;28393;-90
2022/04/05 07:58:21;;;;;;;;;14.60;13.60;;;;;;;;4964968;28;28511;-90
2022/04/05 08:00:46;;;;;;;;;19.00;17.33;;;;;;;;4975513;28;28302;-90
2022/04/05 08:03:12;;;;;;;;;13.00;13.00;;;;;;;;4975848;28;30091;-90
2022/04/05 08:05:39;;;;;;;;;13.00;13.00;;;;;;;;4976568;28;28405;-90
2022/04/05 08:08:04;;;;;;;;;16.50;16.00;;;;;;;;4989007;28;27896;-91
2022/04/05 08:10:29;;;;;;;;;19.75;18.25;;;;;;;;4975138;28;28623;-91
2022/04/05 08:12:55;;;;;;;;;14.00;13.25;;;;;;;;4957166;28;29617;-90
2022/04/05 08:15:21;;;;;;;;;15.00;15.00;;;;;;;;4967808;28;28587;-91
2022/04/05 08:17:47;;;;;;;;;15.00;15.00;;;;;;;;4993675;28;27780;-90
2022/04/05 08:20:12;;;;;;;;;16.50;14.25;;;;;;;;4974124;28;28533;-90
2022/04/05 08:22:38;;;;;;;;;15.00;14.00;;;;;;;;4993951;28;28676;-88
2022/04/05 08:25:04;;;;;;;;;15.00;14.00;;;;;;;;4994994;28;27994;-92
2022/04/05 08:27:29;;;;;;;;;12.75;12.75;;;;;;;;4979737;28;28629;-87
2022/04/05 08:29:54;;;;;;;;;13.75;13.75;;;;;;;;4991904;28;28582;-91
2022/04/05 08:32:20;;;;;;;;;15.67;15.33;;;;;;;;4956889;28;31107;-91
2022/04/05 08:34:45;;;;;;;;;17.50;16.00;;;;;;;;4977098;28;27873;-94
2022/04/05 08:37:11;;;;;;;;;15.25;14.25;;;;;;;;4977221;28;28249;-90
2022/04/05 08:39:36;;;;;;;;;13.25;13.25;;;;;;;;4957830;28;28709;-89
2022/04/05 08:42:03;;;;;;;;;15.33;13.33;;;;;;;;4972843;28;29700;-92
2022/04/05 08:44:28;;;;;;;;;14.25;12.25;;;;;;;;4956934;28;28985;-89
2022/04/05 08:46:54;;;;;;;;;12.50;12.50;;;;;;;;4970760;28;28591;-88
2022/04/05 08:49:20;;;;;;;;;13.00;11.50;;;;;;;;4970863;28;28414;-88
2022/04/05 08:51:45;;;;;;;;;11.00;10.80;;;;;;;;4970875;28;29564;-88
2022/04/05 08:54:10;;;;;;;;;9.25;9.25;;;;;;;;4958833;28;28414;-94
2022/04/05 08:56:35;;;;;;;;;11.75;11.75;;;;;;;;4958723;28;28473;-85
2022/04/05 08:59:01;;;;;;;;;13.50;11.50;;;;;;;;4974601;28;28384;-89
2022/04/05 09:01:29;;;;;;;;;9.75;9.75;;;;;;;;4955341;28;28608;-89
2022/04/05 09:03:58;;;;;;;;;10.00;10.00;;;;;;;;4941471;28;28947;-90
2022/04/05 09:06:26;;;;;;;;;11.40;11.40;;;;;;;;4933996;28;28498;-89
2022/04/05 09:08:56;;;;;;;;;11.25;11.25;;;;;;;;4958950;28;28424;-90
2022/04/05 09:11:21;;;;;;;;;12.00;12.00;;;;;;;;4933122;28;28504;-89
2022/04/05 09:13:57;;;;;;;;;12.33;11.00;;;;;;;;4948751;28;28430;-89
2022/04/05 09:16:28;;;;;;;;;10.60;9.60;;;;;;;;4968292;28;28451;-89
2022/04/05 09:18:53;;;;;;;;;9.80;9.80;;;;;;;;4969011;28;28369;-88
2022/04/05 09:21:18;;;;;;;;;11.00;11.00;;;;;;;;4951328;28;29743;-88
2022/04/05 09:23:44;;;;;;;;;13.00;13.00;;;;;;;;4968520;28;28285;-88
2022/04/05 09:26:13;;;;;;;;;11.75;11.75;;;;;;;;4968414;28;28589;-89
2022/04/05 09:28:38;;;;;;;;;11.00;11.00;;;;;;;;4968792;28;28355;-89
2022/04/05 09:31:05;;;;;;;;;12.33;12.33;;;;;;;;4968223;28;28534;-89
2022/04/05 09:33:31;;;;;;;;;10.00;10.00;;;;;;;;4950923;28;28482;-89
2022/04/05 09:36:04;;;;;;;;;11.25;11.00;;;;;;;;4968665;28;27931;-88
2022/04/05 09:38:29;;;;;;;;;9.00;9.00;;;;;;;;4957703;28;28614;-90
2022/04/05 09:41:07;;;;;;;;;12.25;10.25;;;;;;;;4959495;28;30095;-92
2022/04/05 09:43:33;;;;;;;;;10.60;10.40;;;;;;;;4958009;28;28619;-92
2022/04/05 09:46:00;;;;;;;;;10.25;10.25;;;;;;;;4960991;28;27881;-91
2022/04/05 09:48:26;;;;;;;;;9.60;9.60;;;;;;;;4961210;28;28651;-93
2022/04/05 09:51:06;;;;;;;;;9.75;9.75;;;;;;;;4962884;28;29749;-93
2022/04/05 09:53:38;;;;;;;;;8.75;8.75;;;;;;;;4953735;28;28712;-93
2022/04/05 09:56:04;;;;;;;;;7.40;7.40;;;;;;;;4941196;28;28398;-92
2022/04/05 09:58:30;;;;;;;;;10.20;10.00;;;;;;;;4959968;28;29108;-92
2022/04/05 10:01:07;;;;;;;;;11.00;9.50;;;;;;;;4967833;28;28421;-93
2022/04/05 10:03:33;;;;;;;;;11.25;9.75;;;;;;;;4957920;28;28559;-91
2022/04/05 10:05:59;;;;;;;;;9.00;9.00;;;;;;;;4957031;28;28295;-92
2022/04/05 10:08:25;;;;;;;;;14.75;12.25;;;;;;;;4957815;28;28447;-92
2022/04/05 10:10:50;;;;;;;;;8.75;8.75;;;;;;;;4957324;28;29846;-92
2022/04/05 10:13:15;;;;;;;;;9.67;8.33;;;;;;;;4958315;28;28382;-93
2022/04/05 10:15:42;;;;;;;;;9.33;9.33;;;;;;;;4965157;28;28150;-93
2022/04/05 10:18:08;;;;;;;;;12.00;10.00;;;;;;;;4963093;28;28463;-94
2022/04/05 10:20:34;;;;;;;;;9.00;8.00;;;;;;;;4945412;28;30511;-93
2022/04/05 10:23:02;;;;;;;;;9.00;9.00;;;;;;;;4956004;28;28549;-89
2022/04/05 10:25:29;;;;;;;;;9.60;9.60;;;;;;;;4964966;28;27919;-94
2022/04/05 10:27:54;;;;;;;;;14.25;11.50;;;;;;;;4955885;28;28520;-91
2022/04/05 10:30:26;;;;;;;;;11.25;8.25;;;;;;;;4953971;28;30986;-94
2022/04/05 10:33:01;;;;;;;;;12.40;9.80;;;;;;;;4944756;28;28378;-94
2022/04/05 10:35:29;;;;;;;;;8.40;8.40;;;;;;;;4965231;28;28353;-94
2022/04/05 10:38:14;;;;;;;;;8.00;8.00;;;;;;;;4959358;28;27969;-94
2022/04/05 10:40:39;;;;;;;;;6.00;6.00;;;;;;;;4960531;28;28490;-94
2022/04/05 10:43:18;;;;;;;;;9.00;9.00;;;;;;;;4959787;28;28542;-91
2022/04/05 10:45:44;;;;;;;;;9.25;9.25;;;;;;;;4971508;28;28566;-92
2022/04/05 10:48:14;;;;;;;;;8.80;8.80;;;;;;;;4954908;28;28507;-91
2022/04/05 10:50:41;;;;;;;;;9.60;8.20;;;;;;;;4953327;28;29882;-95
2022/04/05 10:53:11;;;;;;;;;10.25;10.25;;;;;;;;4953157;28;28832;-91
2022/04/05 10:55:55;;;;;;;;;7.80;7.80;;;;;;;;4951471;28;28562;-89
2022/04/05 10:58:20;;;;;;;;;7.00;7.00;;;;;;;;4970217;28;28282;-90
2022/04/05 11:00:48;;;;;;;;;9.00;8.00;;;;;;;;4952117;28;28635;-89
2022/04/05 11:03:13;;;;;;;;;7.50;7.50;;;;;;;;4952437;28;28734;-94
2022/04/05 11:05:40;;;;;;;;;9.25;9.25;;;;;;;;4951415;28;28383;-88
2022/04/05 11:08:09;;;;;;;;;8.25;7.00;;;;;;;;4969141;28;28378;-90
2022/04/05 11:10:37;;;;;;;;;8.75;8.75;;;;;;;;4970087;28;29228;-90
2022/04/05 11:13:04;;;;;;;;;8.50;8.50;;;;;;;;4952537;28;28897;-90
2022/04/05 11:15:46;;;;;;;;;10.33;9.00;;;;;;;;4970650;28;28553;-94
2022/04/05 11:18:19;;;;;;;;;9.25;8.25;;;;;;;;4969498;28;28476;-92
2022/04/05 11:20:45;;;;;;;;;8.00;8.00;;;;;;;;4969621;28;28427;-89
2022/04/05 11:23:11;;;;;;;;;8.00;8.00;;;;;;;;4950000;28;29523;-90
2022/04/05 11:25:36;;;;;;;;;11.25;11.25;;;;;;;;4950117;28;28583;-90
2022/04/05 11:28:14;;;;;;;;;9.00;9.00;;;;;;;;4970264;28;28878;-93
2022/04/05 11:30:39;;;;;;;;;5.75;5.75;;;;;;;;4955771;28;30314;-91
2022/04/05 11:33:21;;;;;;;;;10.00;10.00;;;;;;;;4956574;28;28612;-93
2022/04/05 11:35:51;;;;;;;;;9.00;8.00;;;;;;;;4958830;28;28495;-93
2022/04/05 11:38:19;;;;;;;;;10.25;9.25;;;;;;;;4958860;28;28154;-93
2022/04/05 11:40:49;;;;;;;;;12.00;10.00;;;;;;;;4957842;28;30011;-93
2022/04/05 11:43:27;;;;;;;;;11.00;11.00;;;;;;;;4957952;28;28677;-92
2022/04/05 11:45:54;;;;;;;;;8.80;8.80;;;;;;;;4958417;28;28484;-92
2022/04/05 11:48:20;;;;;;;;;10.60;9.00;;;;;;;;4958395;28;29221;-92
2022/04/05 11:50:46;;;;;;;;;8.00;8.00;;;;;;;;4957431;28;31075;-90
2022/04/05 11:53:19;;;;;;;;;9.00;9.00;;;;;;;;4958171;28;29418;-92
2022/04/05 11:56:02;;;;;;;;;10.80;9.40;;;;;;;;4956764;28;27842;-92
2022/04/05 11:58:30;;;;;;;;;8.50;8.50;;;;;;;;4956107;28;28484;-90
2022/04/05 12:00:56;;;;;;;;;11.80;11.80;;;;;;;;4955390;28;30156;-91
2022/04/05 12:03:21;;;;;;;;;13.00;10.00;;;;;;;;4957294;28;28576;-90
2022/04/05 12:05:46;;;;;;;;;9.00;7.67;;;;;;;;4958048;28;28651;-91
2022/04/05 12:08:13;;;;;;;;;8.00;8.00;;;;;;;;4952246;28;28954;-90
2022/04/05 12:10:39;;;;;;;;;7.25;7.25;;;;;;;;4956275;28;28660;-91
2022/04/05 12:13:04;;;;;;;;;10.00;8.75;;;;;;;;4958612;28;28551;-93
2022/04/05 12:15:30;;;;;;;;;11.00;10.00;;;;;;;;4958712;28;28342;-93
2022/04/05 12:18:14;;;;;;;;;11.00;8.50;;;;;;;;4954966;28;28271;-93
2022/04/05 12:20:39;;;;;;;;;9.00;7.75;;;;;;;;4959108;28;28501;-94
2022/04/05 12:23:17;;;;;;;;;10.33;9.00;;;;;;;;4959580;28;28611;-94
2022/04/05 12:26:00;;;;;;;;;10.75;9.00;;;;;;;;4958873;28;29206;-91
2022/04/05 12:28:25;;;;;;;;;11.75;8.75;;;;;;;;4958460;28;28319;-93
2022/04/05 12:30:50;;;;;;;;;10.25;10.00;;;;;;;;4975511;28;28401;-92
2022/04/05 12:33:22;;;;;;;;;13.00;13.00;;;;;;;;4956921;28;28583;-89
2022/04/05 12:35:48;;;;;;;;;16.00;16.00;;;;;;;;4956753;28;27804;-94
2022/04/05 12:38:13;;;;;;;;;10.00;10.00;;;;;;;;4957269;28;28298;-90
2022/04/05 12:40:40;;;;;;;;;12.00;12.00;;;;;;;;4955588;28;30081;-89
2022/04/05 12:43:19;;;;;;;;;10.00;9.00;;;;;;;;4973522;28;28422;-91
2022/04/05 12:45:45;;;;;;;;;9.00;8.40;;;;;;;;4973897;28;27905;-92
2022/04/05 12:48:17;;;;;;;;;14.00;14.00;;;;;;;;4974769;28;28476;-91
2022/04/05 12:50:46;;;;;;;;;14.00;12.00;;;;;;;;4955656;28;28290;-86
2022/04/05 12:53:13;;;;;;;;;12.25;12.00;;;;;;;;4969213;28;28173;-86
2022/04/05 12:55:39;;;;;;;;;11.25;11.25;;;;;;;;4951829;28;28726;-86
2022/04/05 12:58:04;;;;;;;;;10.00;10.00;;;;;;;;4970531;28;28562;-85
2022/04/05 13:00:32;;;;;;;;;5.25;5.25;;;;;;;;4952781;28;28441;-86
2022/04/05 13:03:10;;;;;;;;;7.80;7.80;;;;;;;;4970244;28;28398;-87
2022/04/05 13:08:30;;;;;;;;;15.75;14.25;;;;;;;;4972453;28;28338;-86
2022/04/05 13:10:56;;;;;;;;;10.00;10.00;;;;;;;;4953027;28;29832;-87
2022/04/05 13:13:38;;;;;;;;;11.50;9.25;;;;;;;;4969125;28;27901;-85
2022/04/05 13:16:03;;;;;;;;;11.40;8.40;;;;;;;;4969753;28;28429;-85
2022/04/05 13:18:35;;;;;;;;;10.00;10.00;;;;;;;;4969422;28;28530;-85
2022/04/05 13:21:03;;;;;;;;;9.20;9.20;;;;;;;;4969051;28;28507;-86
2022/04/05 13:23:30;;;;;;;;;6.80;6.80;;;;;;;;4970160;28;28495;-86
2022/04/05 13:25:55;;;;;;;;;9.00;9.00;;;;;;;;4970103;28;28834;-85
2022/04/05 13:28:29;;;;;;;;;5.50;5.50;;;;;;;;4970206;28;28464;-85
2022/04/05 13:30:54;;;;;;;;;9.50;9.50;;;;;;;;4969872;28;28537;-86
2022/04/05 13:33:20;;;;;;;;;8.00;7.25;;;;;;;;4969584;28;28872;-86
2022/04/05 13:35:45;;;;;;;;;10.00;10.00;;;;;;;;4969535;28;28382;-85
2022/04/05 13:38:10;;;;;;;;;8.00;8.00;;;;;;;;4970130;28;28575;-86
2022/04/05 13:40:36;;;;;;;;;9.67;9.67;;;;;;;;4969532;28;28441;-85
2022/04/05 13:43:01;;;;;;;;;8.00;7.50;;;;;;;;4969773;28;28473;-85
2022/04/05 13:45:27;;;;;;;;;10.00;10.00;;;;;;;;4969458;28;28551;-86
2022/04/05 13:47:52;;;;;;;;;10.00;10.00;;;;;;;;4969603;28;28507;-85
2022/04/05 13:50:18;;;;;;;;;10.75;10.75;;;;;;;;4951326;28;28755;-85
2022/04/05 13:52:44;;;;;;;;;10.00;10.00;;;;;;;;4967732;28;28431;-85
2022/04/05 13:55:10;;;;;;;;;13.80;12.20;;;;;;;;4969064;28;28527;-85
2022/04/05 13:57:35;;;;;;;;;16.00;16.00;;;;;;;;4969557;28;28484;-86
2022/04/05 14:00:03;;;;;;;;;19.50;19.50;;;;;;;;4968888;28;28592;-84
2022/04/05 14:02:29;;;;;;;;;13.25;13.25;;;;;;;;4968960;28;28472;-86
2022/04/05 14:04:54;;;;;;;;;10.40;10.40;;;;;;;;4969389;28;28534;-86
2022/04/05 14:07:20;;;;;;;;;19.25;16.00;;;;;;;;4969519;28;28504;-86
2022/04/05 14:09:45;;;;;;;;;22.00;20.25;;;;;;;;4966092;28;28504;-86
2022/04/05 14:12:10;;;;;;;;;15.50;15.50;;;;;;;;4951233;28;28974;-86
2022/04/05 14:14:36;;;;;;;;;16.25;15.00;;;;;;;;4969262;28;28501;-86
2022/04/05 14:17:02;;;;;;;;;15.00;12.50;;;;;;;;4942608;28;28663;-87
2022/04/05 14:19:27;;;;;;;;;17.80;16.40;;;;;;;;4942720;28;28713;-85
2022/04/05 14:21:53;;;;;;;;;17.00;15.75;;;;;;;;4954442;28;28476;-86